sensor_id;sensor_type;location;lat;lon;timestamp;P1;durP1;ratioP1;P2;durP2;ratioP2
48207;SDS011;33997;53.278;9.708;2023-11-22T00:00:13;2.22;;;1.20;;
48207;SDS011;33997;53.278;9.708;2023-11-22T00:02:39;4.45;;;2.00;;
48207;SDS011;33997;53.278;9.708;2023-11-22T00:05:05;2.22;;;1.30;;
48207;SDS011;33997;53.278;9.708;2023-11-22T00:07:31;2.35;;;1.13;;
48207;SDS011;33997;53.278;9.708;2023-11-22T00:09:57;2.75;;;1.17;;
48207;SDS011;33997;53.278;9.708;2023-11-22T00:12:23;2.85;;;1.65;;
48207;SDS011;33997;53.278;9.708;2023-11-22T00:14:49;1.83;;;1.10;;
48207;SDS011;33997;53.278;9.708;2023-11-22T00:17:15;3.55;;;1.13;;
48207;SDS011;33997;53.278;9.708;2023-11-22T00:19:44;3.33;;;1.40;;
48207;SDS011;33997;53.278;9.708;2023-11-22T00:22:10;2.25;;;1.20;;
48207;SDS011;33997;53.278;9.708;2023-11-22T00:24:39;2.67;;;1.33;;
48207;SDS011;33997;53.278;9.708;2023-11-22T00:27:05;1.83;;;1.15;;
48207;SDS011;33997;53.278;9.708;2023-11-22T00:29:31;2.45;;;1.10;;
48207;SDS011;33997;53.278;9.708;2023-11-22T00:31:57;2.08;;;1.35;;
48207;SDS011;33997;53.278;9.708;2023-11-22T00:34:22;2.53;;;1.20;;
48207;SDS011;33997;53.278;9.708;2023-11-22T00:36:48;2.97;;;1.42;;
48207;SDS011;33997;53.278;9.708;2023-11-22T00:39:14;2.88;;;1.40;;
48207;SDS011;33997;53.278;9.708;2023-11-22T00:41:39;1.65;;;1.15;;
48207;SDS011;33997;53.278;9.708;2023-11-22T00:44:05;2.42;;;1.30;;
48207;SDS011;33997;53.278;9.708;2023-11-22T00:46:33;3.65;;;1.60;;
48207;SDS011;33997;53.278;9.708;2023-11-22T00:48:59;2.45;;;1.33;;
48207;SDS011;33997;53.278;9.708;2023-11-22T00:51:24;3.45;;;1.65;;
48207;SDS011;33997;53.278;9.708;2023-11-22T00:53:50;3.13;;;1.50;;
48207;SDS011;33997;53.278;9.708;2023-11-22T00:56:16;3.30;;;1.73;;
48207;SDS011;33997;53.278;9.708;2023-11-22T00:58:42;4.45;;;1.35;;
48207;SDS011;33997;53.278;9.708;2023-11-22T01:01:07;3.75;;;1.25;;
48207;SDS011;33997;53.278;9.708;2023-11-22T01:03:33;3.15;;;1.65;;
48207;SDS011;33997;53.278;9.708;2023-11-22T01:06:00;4.03;;;1.70;;
48207;SDS011;33997;53.278;9.708;2023-11-22T01:08:25;3.78;;;1.48;;
48207;SDS011;33997;53.278;9.708;2023-11-22T01:10:51;3.78;;;1.88;;
48207;SDS011;33997;53.278;9.708;2023-11-22T01:13:16;2.15;;;1.35;;
48207;SDS011;33997;53.278;9.708;2023-11-22T01:15:42;2.63;;;1.48;;
48207;SDS011;33997;53.278;9.708;2023-11-22T01:18:09;3.20;;;1.50;;
48207;SDS011;33997;53.278;9.708;2023-11-22T01:20:35;3.67;;;1.50;;
48207;SDS011;33997;53.278;9.708;2023-11-22T01:23:01;3.22;;;1.48;;
48207;SDS011;33997;53.278;9.708;2023-11-22T01:25:26;3.63;;;1.60;;
48207;SDS011;33997;53.278;9.708;2023-11-22T01:27:53;3.55;;;1.88;;
48207;SDS011;33997;53.278;9.708;2023-11-22T01:30:18;3.00;;;1.40;;
48207;SDS011;33997;53.278;9.708;2023-11-22T01:32:44;3.38;;;1.67;;
48207;SDS011;33997;53.278;9.708;2023-11-22T01:35:09;5.65;;;1.65;;
48207;SDS011;33997;53.278;9.708;2023-11-22T01:37:35;3.22;;;1.58;;
48207;SDS011;33997;53.278;9.708;2023-11-22T01:40:01;2.60;;;1.42;;
48207;SDS011;33997;53.278;9.708;2023-11-22T01:42:28;2.70;;;1.50;;
48207;SDS011;33997;53.278;9.708;2023-11-22T01:44:54;2.92;;;1.52;;
48207;SDS011;33997;53.278;9.708;2023-11-22T01:47:20;3.60;;;1.67;;
48207;SDS011;33997;53.278;9.708;2023-11-22T01:49:46;4.63;;;1.63;;
48207;SDS011;33997;53.278;9.708;2023-11-22T01:52:12;3.33;;;1.42;;
48207;SDS011;33997;53.278;9.708;2023-11-22T01:54:38;2.80;;;1.38;;
48207;SDS011;33997;53.278;9.708;2023-11-22T01:57:03;3.15;;;1.55;;
48207;SDS011;33997;53.278;9.708;2023-11-22T01:59:32;3.42;;;1.60;;
48207;SDS011;33997;53.278;9.708;2023-11-22T02:01:58;3.13;;;1.30;;
48207;SDS011;33997;53.278;9.708;2023-11-22T02:04:24;2.88;;;1.30;;
48207;SDS011;33997;53.278;9.708;2023-11-22T02:06:50;2.55;;;1.60;;
48207;SDS011;33997;53.278;9.708;2023-11-22T02:09:16;2.50;;;1.35;;
48207;SDS011;33997;53.278;9.708;2023-11-22T02:11:42;2.38;;;1.40;;
48207;SDS011;33997;53.278;9.708;2023-11-22T02:14:10;2.42;;;1.40;;
48207;SDS011;33997;53.278;9.708;2023-11-22T02:16:36;3.03;;;1.70;;
48207;SDS011;33997;53.278;9.708;2023-11-22T02:19:03;6.32;;;1.55;;
48207;SDS011;33997;53.278;9.708;2023-11-22T02:21:32;3.60;;;1.13;;
48207;SDS011;33997;53.278;9.708;2023-11-22T02:24:00;3.65;;;1.40;;
48207;SDS011;33997;53.278;9.708;2023-11-22T02:26:26;3.67;;;1.60;;
48207;SDS011;33997;53.278;9.708;2023-11-22T02:28:52;2.45;;;1.23;;
48207;SDS011;33997;53.278;9.708;2023-11-22T02:31:18;3.75;;;1.70;;
48207;SDS011;33997;53.278;9.708;2023-11-22T02:33:43;2.38;;;1.30;;
48207;SDS011;33997;53.278;9.708;2023-11-22T02:36:09;3.63;;;1.67;;
48207;SDS011;33997;53.278;9.708;2023-11-22T02:38:37;2.70;;;1.08;;
48207;SDS011;33997;53.278;9.708;2023-11-22T02:41:03;2.53;;;1.48;;
48207;SDS011;33997;53.278;9.708;2023-11-22T02:43:29;3.33;;;1.48;;
48207;SDS011;33997;53.278;9.708;2023-11-22T02:45:55;3.08;;;1.38;;
48207;SDS011;33997;53.278;9.708;2023-11-22T02:48:20;3.05;;;1.40;;
48207;SDS011;33997;53.278;9.708;2023-11-22T02:50:46;2.00;;;0.98;;
48207;SDS011;33997;53.278;9.708;2023-11-22T02:53:11;2.40;;;1.00;;
48207;SDS011;33997;53.278;9.708;2023-11-22T02:55:37;3.22;;;1.42;;
48207;SDS011;33997;53.278;9.708;2023-11-22T02:58:03;2.15;;;1.40;;
48207;SDS011;33997;53.278;9.708;2023-11-22T03:00:28;3.30;;;1.55;;
48207;SDS011;33997;53.278;9.708;2023-11-22T03:02:54;3.05;;;1.50;;
48207;SDS011;33997;53.278;9.708;2023-11-22T03:05:20;4.20;;;2.05;;
48207;SDS011;33997;53.278;9.708;2023-11-22T03:07:46;2.50;;;1.27;;
48207;SDS011;33997;53.278;9.708;2023-11-22T03:10:12;3.42;;;1.70;;
48207;SDS011;33997;53.278;9.708;2023-11-22T03:12:38;3.80;;;1.70;;
48207;SDS011;33997;53.278;9.708;2023-11-22T03:15:03;3.55;;;1.70;;
48207;SDS011;33997;53.278;9.708;2023-11-22T03:17:30;4.07;;;1.92;;
48207;SDS011;33997;53.278;9.708;2023-11-22T03:19:57;3.72;;;1.50;;
48207;SDS011;33997;53.278;9.708;2023-11-22T03:22:23;4.03;;;1.77;;
48207;SDS011;33997;53.278;9.708;2023-11-22T03:24:49;2.80;;;1.42;;
48207;SDS011;33997;53.278;9.708;2023-11-22T03:27:21;4.32;;;2.05;;
48207;SDS011;33997;53.278;9.708;2023-11-22T03:29:48;4.75;;;1.95;;
48207;SDS011;33997;53.278;9.708;2023-11-22T03:32:13;5.50;;;2.15;;
48207;SDS011;33997;53.278;9.708;2023-11-22T03:34:39;4.28;;;1.95;;
48207;SDS011;33997;53.278;9.708;2023-11-22T03:37:04;2.97;;;1.27;;
48207;SDS011;33997;53.278;9.708;2023-11-22T03:39:30;3.67;;;1.70;;
48207;SDS011;33997;53.278;9.708;2023-11-22T03:41:55;3.67;;;1.67;;
48207;SDS011;33997;53.278;9.708;2023-11-22T03:44:22;4.00;;;1.92;;
48207;SDS011;33997;53.278;9.708;2023-11-22T03:46:47;4.93;;;1.58;;
48207;SDS011;33997;53.278;9.708;2023-11-22T03:49:13;4.07;;;1.80;;
48207;SDS011;33997;53.278;9.708;2023-11-22T03:51:39;5.88;;;1.92;;
48207;SDS011;33997;53.278;9.708;2023-11-22T03:54:05;2.45;;;1.20;;
48207;SDS011;33997;53.278;9.708;2023-11-22T03:56:31;3.85;;;1.67;;
48207;SDS011;33997;53.278;9.708;2023-11-22T03:58:58;4.47;;;1.95;;
48207;SDS011;33997;53.278;9.708;2023-11-22T04:01:24;4.68;;;2.03;;
48207;SDS011;33997;53.278;9.708;2023-11-22T04:03:49;4.95;;;1.92;;
48207;SDS011;33997;53.278;9.708;2023-11-22T04:06:15;5.05;;;1.98;;
48207;SDS011;33997;53.278;9.708;2023-11-22T04:08:42;3.78;;;1.77;;
48207;SDS011;33997;53.278;9.708;2023-11-22T04:11:09;4.50;;;1.90;;
48207;SDS011;33997;53.278;9.708;2023-11-22T04:13:34;6.15;;;1.73;;
48207;SDS011;33997;53.278;9.708;2023-11-22T04:16:00;3.28;;;1.63;;
48207;SDS011;33997;53.278;9.708;2023-11-22T04:18:26;2.20;;;1.50;;
48207;SDS011;33997;53.278;9.708;2023-11-22T04:20:52;5.10;;;2.38;;
48207;SDS011;33997;53.278;9.708;2023-11-22T04:23:17;4.80;;;2.00;;
48207;SDS011;33997;53.278;9.708;2023-11-22T04:25:43;6.18;;;2.05;;
48207;SDS011;33997;53.278;9.708;2023-11-22T04:28:08;5.13;;;2.15;;
48207;SDS011;33997;53.278;9.708;2023-11-22T04:30:34;4.47;;;1.80;;
48207;SDS011;33997;53.278;9.708;2023-11-22T04:33:00;4.53;;;2.00;;
48207;SDS011;33997;53.278;9.708;2023-11-22T04:35:26;4.45;;;1.77;;
48207;SDS011;33997;53.278;9.708;2023-11-22T04:37:52;4.60;;;2.60;;
48207;SDS011;33997;53.278;9.708;2023-11-22T04:40:18;3.58;;;1.58;;
48207;SDS011;33997;53.278;9.708;2023-11-22T04:42:43;4.57;;;2.15;;
48207;SDS011;33997;53.278;9.708;2023-11-22T04:45:09;6.03;;;2.10;;
48207;SDS011;33997;53.278;9.708;2023-11-22T04:47:35;5.72;;;2.15;;
48207;SDS011;33997;53.278;9.708;2023-11-22T04:50:00;4.55;;;1.80;;
48207;SDS011;33997;53.278;9.708;2023-11-22T04:52:26;4.85;;;1.80;;
48207;SDS011;33997;53.278;9.708;2023-11-22T04:54:52;4.35;;;2.13;;
48207;SDS011;33997;53.278;9.708;2023-11-22T04:57:17;4.82;;;1.98;;
48207;SDS011;33997;53.278;9.708;2023-11-22T04:59:43;3.75;;;2.13;;
48207;SDS011;33997;53.278;9.708;2023-11-22T05:02:08;3.78;;;1.92;;
48207;SDS011;33997;53.278;9.708;2023-11-22T05:04:34;3.83;;;1.85;;
48207;SDS011;33997;53.278;9.708;2023-11-22T05:06:59;3.90;;;1.95;;
48207;SDS011;33997;53.278;9.708;2023-11-22T05:09:25;3.50;;;1.75;;
48207;SDS011;33997;53.278;9.708;2023-11-22T05:11:50;4.90;;;1.90;;
48207;SDS011;33997;53.278;9.708;2023-11-22T05:14:17;4.60;;;1.90;;
48207;SDS011;33997;53.278;9.708;2023-11-22T05:16:42;3.92;;;1.98;;
48207;SDS011;33997;53.278;9.708;2023-11-22T05:19:08;3.72;;;1.52;;
48207;SDS011;33997;53.278;9.708;2023-11-22T05:21:33;5.15;;;2.15;;
48207;SDS011;33997;53.278;9.708;2023-11-22T05:23:59;4.82;;;1.88;;
48207;SDS011;33997;53.278;9.708;2023-11-22T05:26:25;2.97;;;1.77;;
48207;SDS011;33997;53.278;9.708;2023-11-22T05:28:51;3.97;;;2.38;;
48207;SDS011;33997;53.278;9.708;2023-11-22T05:31:18;4.18;;;1.48;;
48207;SDS011;33997;53.278;9.708;2023-11-22T05:33:45;4.13;;;2.20;;
48207;SDS011;33997;53.278;9.708;2023-11-22T05:36:10;3.22;;;1.58;;
48207;SDS011;33997;53.278;9.708;2023-11-22T05:38:36;3.38;;;1.60;;
48207;SDS011;33997;53.278;9.708;2023-11-22T05:41:03;5.70;;;1.77;;
48207;SDS011;33997;53.278;9.708;2023-11-22T05:43:28;4.00;;;1.83;;
48207;SDS011;33997;53.278;9.708;2023-11-22T05:45:54;3.70;;;1.67;;
48207;SDS011;33997;53.278;9.708;2023-11-22T05:48:19;3.38;;;1.98;;
48207;SDS011;33997;53.278;9.708;2023-11-22T05:50:45;3.75;;;2.00;;
48207;SDS011;33997;53.278;9.708;2023-11-22T05:53:12;3.60;;;1.52;;
48207;SDS011;33997;53.278;9.708;2023-11-22T05:55:37;3.58;;;1.92;;
48207;SDS011;33997;53.278;9.708;2023-11-22T05:58:03;4.53;;;2.20;;
48207;SDS011;33997;53.278;9.708;2023-11-22T06:00:29;3.60;;;1.73;;
48207;SDS011;33997;53.278;9.708;2023-11-22T06:02:54;5.63;;;1.73;;
48207;SDS011;33997;53.278;9.708;2023-11-22T06:05:20;4.53;;;2.40;;
48207;SDS011;33997;53.278;9.708;2023-11-22T06:07:46;4.10;;;2.30;;
48207;SDS011;33997;53.278;9.708;2023-11-22T06:10:12;6.22;;;2.63;;
48207;SDS011;33997;53.278;9.708;2023-11-22T06:12:39;4.03;;;2.28;;
48207;SDS011;33997;53.278;9.708;2023-11-22T06:15:05;6.07;;;2.42;;
48207;SDS011;33997;53.278;9.708;2023-11-22T06:17:31;6.00;;;2.33;;
48207;SDS011;33997;53.278;9.708;2023-11-22T06:19:56;6.68;;;2.72;;
48207;SDS011;33997;53.278;9.708;2023-11-22T06:22:22;6.63;;;2.50;;
48207;SDS011;33997;53.278;9.708;2023-11-22T06:24:47;4.45;;;2.42;;
48207;SDS011;33997;53.278;9.708;2023-11-22T06:27:13;6.47;;;2.60;;
48207;SDS011;33997;53.278;9.708;2023-11-22T06:29:40;6.80;;;3.38;;
48207;SDS011;33997;53.278;9.708;2023-11-22T06:32:09;4.70;;;2.50;;
48207;SDS011;33997;53.278;9.708;2023-11-22T06:34:34;6.97;;;3.42;;
48207;SDS011;33997;53.278;9.708;2023-11-22T06:37:01;7.40;;;3.05;;
48207;SDS011;33997;53.278;9.708;2023-11-22T06:39:27;6.35;;;2.97;;
48207;SDS011;33997;53.278;9.708;2023-11-22T06:41:52;6.80;;;3.00;;
48207;SDS011;33997;53.278;9.708;2023-11-22T06:44:18;6.55;;;2.38;;
48207;SDS011;33997;53.278;9.708;2023-11-22T06:46:43;4.97;;;1.98;;
48207;SDS011;33997;53.278;9.708;2023-11-22T06:49:09;5.35;;;2.20;;
48207;SDS011;33997;53.278;9.708;2023-11-22T06:51:34;4.88;;;2.00;;
48207;SDS011;33997;53.278;9.708;2023-11-22T06:54:00;6.93;;;2.72;;
48207;SDS011;33997;53.278;9.708;2023-11-22T06:56:25;4.70;;;1.92;;
48207;SDS011;33997;53.278;9.708;2023-11-22T06:58:50;4.97;;;2.10;;
48207;SDS011;33997;53.278;9.708;2023-11-22T07:01:16;4.32;;;2.10;;
48207;SDS011;33997;53.278;9.708;2023-11-22T07:03:42;4.78;;;1.90;;
48207;SDS011;33997;53.278;9.708;2023-11-22T07:06:07;3.85;;;1.85;;
48207;SDS011;33997;53.278;9.708;2023-11-22T07:08:33;4.85;;;2.17;;
48207;SDS011;33997;53.278;9.708;2023-11-22T07:10:59;4.65;;;2.28;;
48207;SDS011;33997;53.278;9.708;2023-11-22T07:13:25;7.13;;;3.15;;
48207;SDS011;33997;53.278;9.708;2023-11-22T07:15:51;5.57;;;2.88;;
48207;SDS011;33997;53.278;9.708;2023-11-22T07:18:18;6.55;;;2.90;;
48207;SDS011;33997;53.278;9.708;2023-11-22T07:20:44;5.43;;;2.95;;
48207;SDS011;33997;53.278;9.708;2023-11-22T07:23:10;5.80;;;2.92;;
48207;SDS011;33997;53.278;9.708;2023-11-22T07:25:38;6.50;;;3.20;;
48207;SDS011;33997;53.278;9.708;2023-11-22T07:28:04;8.02;;;3.17;;
48207;SDS011;33997;53.278;9.708;2023-11-22T07:30:29;6.97;;;3.45;;
48207;SDS011;33997;53.278;9.708;2023-11-22T07:32:57;7.18;;;3.53;;
48207;SDS011;33997;53.278;9.708;2023-11-22T07:35:24;6.95;;;3.58;;
48207;SDS011;33997;53.278;9.708;2023-11-22T07:37:50;8.10;;;3.85;;
48207;SDS011;33997;53.278;9.708;2023-11-22T07:40:16;9.93;;;4.53;;
48207;SDS011;33997;53.278;9.708;2023-11-22T07:42:44;9.30;;;3.83;;
48207;SDS011;33997;53.278;9.708;2023-11-22T07:45:09;6.93;;;3.30;;
48207;SDS011;33997;53.278;9.708;2023-11-22T07:47:36;7.65;;;3.72;;
48207;SDS011;33997;53.278;9.708;2023-11-22T07:50:05;6.45;;;3.20;;
48207;SDS011;33997;53.278;9.708;2023-11-22T07:52:32;9.90;;;4.45;;
48207;SDS011;33997;53.278;9.708;2023-11-22T07:54:58;10.23;;;4.05;;
48207;SDS011;33997;53.278;9.708;2023-11-22T07:57:24;8.77;;;3.85;;
48207;SDS011;33997;53.278;9.708;2023-11-22T07:59:50;8.65;;;3.63;;
48207;SDS011;33997;53.278;9.708;2023-11-22T08:02:19;8.40;;;4.03;;
48207;SDS011;33997;53.278;9.708;2023-11-22T08:04:45;5.45;;;2.92;;
48207;SDS011;33997;53.278;9.708;2023-11-22T08:07:11;8.15;;;3.97;;
48207;SDS011;33997;53.278;9.708;2023-11-22T08:09:39;7.53;;;3.95;;
48207;SDS011;33997;53.278;9.708;2023-11-22T08:12:06;7.85;;;4.00;;
48207;SDS011;33997;53.278;9.708;2023-11-22T08:14:32;6.80;;;3.50;;
48207;SDS011;33997;53.278;9.708;2023-11-22T08:16:58;8.20;;;3.13;;
48207;SDS011;33997;53.278;9.708;2023-11-22T08:19:23;6.88;;;3.35;;
48207;SDS011;33997;53.278;9.708;2023-11-22T08:21:49;6.82;;;4.22;;
48207;SDS011;33997;53.278;9.708;2023-11-22T08:24:15;6.75;;;3.38;;
48207;SDS011;33997;53.278;9.708;2023-11-22T08:26:43;7.03;;;2.88;;
48207;SDS011;33997;53.278;9.708;2023-11-22T08:29:09;6.45;;;3.22;;
48207;SDS011;33997;53.278;9.708;2023-11-22T08:31:36;6.57;;;3.20;;
48207;SDS011;33997;53.278;9.708;2023-11-22T08:34:02;7.05;;;3.53;;
48207;SDS011;33997;53.278;9.708;2023-11-22T08:36:31;6.68;;;3.63;;
48207;SDS011;33997;53.278;9.708;2023-11-22T08:38:59;7.30;;;3.83;;
48207;SDS011;33997;53.278;9.708;2023-11-22T08:41:25;9.35;;;4.63;;
48207;SDS011;33997;53.278;9.708;2023-11-22T08:43:52;7.13;;;3.97;;
48207;SDS011;33997;53.278;9.708;2023-11-22T08:46:17;8.10;;;4.07;;
48207;SDS011;33997;53.278;9.708;2023-11-22T08:48:43;7.32;;;3.92;;
48207;SDS011;33997;53.278;9.708;2023-11-22T08:51:08;6.25;;;3.95;;
48207;SDS011;33997;53.278;9.708;2023-11-22T08:53:35;7.00;;;3.92;;
48207;SDS011;33997;53.278;9.708;2023-11-22T08:56:00;5.88;;;3.67;;
48207;SDS011;33997;53.278;9.708;2023-11-22T08:58:29;7.68;;;3.28;;
48207;SDS011;33997;53.278;9.708;2023-11-22T09:00:55;9.70;;;3.50;;
48207;SDS011;33997;53.278;9.708;2023-11-22T09:03:22;4.57;;;2.70;;
48207;SDS011;33997;53.278;9.708;2023-11-22T09:05:48;4.85;;;2.78;;
48207;SDS011;33997;53.278;9.708;2023-11-22T09:08:14;6.53;;;2.95;;
48207;SDS011;33997;53.278;9.708;2023-11-22T09:10:40;5.80;;;2.97;;
48207;SDS011;33997;53.278;9.708;2023-11-22T09:13:09;5.00;;;3.10;;
48207;SDS011;33997;53.278;9.708;2023-11-22T09:15:35;5.90;;;2.63;;
48207;SDS011;33997;53.278;9.708;2023-11-22T09:18:03;5.47;;;2.70;;
48207;SDS011;33997;53.278;9.708;2023-11-22T09:20:29;7.70;;;2.95;;
48207;SDS011;33997;53.278;9.708;2023-11-22T09:22:55;5.03;;;2.13;;
48207;SDS011;33997;53.278;9.708;2023-11-22T09:25:21;4.60;;;2.00;;
48207;SDS011;33997;53.278;9.708;2023-11-22T09:27:49;6.72;;;2.38;;
48207;SDS011;33997;53.278;9.708;2023-11-22T09:30:18;4.28;;;2.05;;
48207;SDS011;33997;53.278;9.708;2023-11-22T09:33:07;3.17;;;1.67;;
48207;SDS011;33997;53.278;9.708;2023-11-22T09:35:34;3.35;;;1.70;;
48207;SDS011;33997;53.278;9.708;2023-11-22T09:38:04;4.85;;;1.88;;
48207;SDS011;33997;53.278;9.708;2023-11-22T09:40:34;2.50;;;1.52;;
48207;SDS011;33997;53.278;9.708;2023-11-22T09:43:01;4.55;;;2.15;;
48207;SDS011;33997;53.278;9.708;2023-11-22T09:45:27;3.28;;;2.03;;
48207;SDS011;33997;53.278;9.708;2023-11-22T09:47:54;3.35;;;1.80;;
48207;SDS011;33997;53.278;9.708;2023-11-22T09:50:26;4.90;;;1.88;;
48207;SDS011;33997;53.278;9.708;2023-11-22T09:53:00;3.40;;;1.83;;
48207;SDS011;33997;53.278;9.708;2023-11-22T09:55:28;3.78;;;2.00;;
48207;SDS011;33997;53.278;9.708;2023-11-22T09:57:57;2.83;;;1.58;;
48207;SDS011;33997;53.278;9.708;2023-11-22T10:00:26;4.18;;;1.92;;
48207;SDS011;33997;53.278;9.708;2023-11-22T10:02:55;3.28;;;1.73;;
48207;SDS011;33997;53.278;9.708;2023-11-22T10:05:21;4.72;;;2.25;;
48207;SDS011;33997;53.278;9.708;2023-11-22T10:07:46;3.85;;;1.90;;
48207;SDS011;33997;53.278;9.708;2023-11-22T10:10:13;4.20;;;1.88;;
48207;SDS011;33997;53.278;9.708;2023-11-22T10:12:42;2.60;;;1.40;;
48207;SDS011;33997;53.278;9.708;2023-11-22T10:15:14;3.55;;;1.70;;
48207;SDS011;33997;53.278;9.708;2023-11-22T10:17:44;2.70;;;1.33;;
48207;SDS011;33997;53.278;9.708;2023-11-22T10:20:39;3.00;;;1.45;;
48207;SDS011;33997;53.278;9.708;2023-11-22T10:23:09;3.05;;;1.75;;
48207;SDS011;33997;53.278;9.708;2023-11-22T10:25:47;3.05;;;1.65;;
48207;SDS011;33997;53.278;9.708;2023-11-22T10:28:20;2.50;;;1.42;;
48207;SDS011;33997;53.278;9.708;2023-11-22T10:30:51;3.00;;;1.40;;
48207;SDS011;33997;53.278;9.708;2023-11-22T10:33:17;4.35;;;1.23;;
48207;SDS011;33997;53.278;9.708;2023-11-22T10:35:47;3.60;;;1.70;;
48207;SDS011;33997;53.278;9.708;2023-11-22T10:38:17;3.15;;;1.50;;
48207;SDS011;33997;53.278;9.708;2023-11-22T10:40:44;2.55;;;1.50;;
48207;SDS011;33997;53.278;9.708;2023-11-22T10:43:14;7.53;;;1.80;;
48207;SDS011;33997;53.278;9.708;2023-11-22T10:45:41;2.08;;;1.25;;
48207;SDS011;33997;53.278;9.708;2023-11-22T10:48:13;1.23;;;1.00;;
48207;SDS011;33997;53.278;9.708;2023-11-22T10:50:43;2.17;;;1.25;;
48207;SDS011;33997;53.278;9.708;2023-11-22T10:53:11;1.98;;;1.30;;
48207;SDS011;33997;53.278;9.708;2023-11-22T10:55:46;2.95;;;1.55;;
48207;SDS011;33997;53.278;9.708;2023-11-22T10:58:13;2.38;;;1.30;;
48207;SDS011;33997;53.278;9.708;2023-11-22T11:00:40;1.30;;;0.95;;
48207;SDS011;33997;53.278;9.708;2023-11-22T11:03:13;2.63;;;1.17;;
48207;SDS011;33997;53.278;9.708;2023-11-22T11:05:46;2.75;;;1.33;;
48207;SDS011;33997;53.278;9.708;2023-11-22T11:08:17;2.60;;;1.30;;
48207;SDS011;33997;53.278;9.708;2023-11-22T11:10:45;2.22;;;1.17;;
48207;SDS011;33997;53.278;9.708;2023-11-22T11:13:11;1.92;;;1.20;;
48207;SDS011;33997;53.278;9.708;2023-11-22T11:15:38;1.77;;;1.10;;
48207;SDS011;33997;53.278;9.708;2023-11-22T11:18:06;3.28;;;1.38;;
48207;SDS011;33997;53.278;9.708;2023-11-22T11:20:32;3.25;;;1.70;;
48207;SDS011;33997;53.278;9.708;2023-11-22T11:23:12;2.20;;;1.08;;
48207;SDS011;33997;53.278;9.708;2023-11-22T11:25:39;3.05;;;1.65;;
48207;SDS011;33997;53.278;9.708;2023-11-22T11:28:06;3.65;;;1.80;;
48207;SDS011;33997;53.278;9.708;2023-11-22T11:30:43;2.38;;;1.23;;
48207;SDS011;33997;53.278;9.708;2023-11-22T11:33:11;2.53;;;1.52;;
48207;SDS011;33997;53.278;9.708;2023-11-22T11:35:40;3.88;;;1.80;;
48207;SDS011;33997;53.278;9.708;2023-11-22T11:38:07;2.72;;;1.10;;
48207;SDS011;33997;53.278;9.708;2023-11-22T11:40:34;2.90;;;1.40;;
48207;SDS011;33997;53.278;9.708;2023-11-22T11:43:01;1.88;;;1.10;;
48207;SDS011;33997;53.278;9.708;2023-11-22T11:45:27;1.60;;;1.20;;
48207;SDS011;33997;53.278;9.708;2023-11-22T11:47:53;2.50;;;1.13;;
48207;SDS011;33997;53.278;9.708;2023-11-22T11:50:20;1.55;;;0.90;;
48207;SDS011;33997;53.278;9.708;2023-11-22T11:52:47;2.75;;;1.40;;
48207;SDS011;33997;53.278;9.708;2023-11-22T11:55:12;2.58;;;1.17;;
48207;SDS011;33997;53.278;9.708;2023-11-22T11:57:38;2.35;;;1.33;;
48207;SDS011;33997;53.278;9.708;2023-11-22T12:00:06;2.08;;;1.25;;
48207;SDS011;33997;53.278;9.708;2023-11-22T12:02:34;2.15;;;1.35;;
48207;SDS011;33997;53.278;9.708;2023-11-22T12:05:00;2.92;;;1.63;;
48207;SDS011;33997;53.278;9.708;2023-11-22T12:07:31;2.83;;;1.33;;
48207;SDS011;33997;53.278;9.708;2023-11-22T12:09:56;1.45;;;1.00;;
48207;SDS011;33997;53.278;9.708;2023-11-22T12:12:22;1.23;;;0.85;;
48207;SDS011;33997;53.278;9.708;2023-11-22T12:14:47;2.70;;;1.30;;
48207;SDS011;33997;53.278;9.708;2023-11-22T12:17:14;2.92;;;1.02;;
48207;SDS011;33997;53.278;9.708;2023-11-22T12:19:41;1.65;;;0.93;;
48207;SDS011;33997;53.278;9.708;2023-11-22T12:22:06;1.52;;;1.02;;
48207;SDS011;33997;53.278;9.708;2023-11-22T12:24:32;1.30;;;0.65;;
48207;SDS011;33997;53.278;9.708;2023-11-22T12:26:59;1.58;;;0.90;;
48207;SDS011;33997;53.278;9.708;2023-11-22T12:29:25;2.25;;;1.20;;
48207;SDS011;33997;53.278;9.708;2023-11-22T12:31:51;1.95;;;0.85;;
48207;SDS011;33997;53.278;9.708;2023-11-22T12:34:22;0.70;;;0.60;;
48207;SDS011;33997;53.278;9.708;2023-11-22T12:36:48;2.78;;;0.80;;
48207;SDS011;33997;53.278;9.708;2023-11-22T12:39:14;1.02;;;0.80;;
48207;SDS011;33997;53.278;9.708;2023-11-22T12:41:43;0.95;;;0.70;;
48207;SDS011;33997;53.278;9.708;2023-11-22T12:44:10;2.20;;;0.98;;
48207;SDS011;33997;53.278;9.708;2023-11-22T12:49:11;1.45;;;0.80;;
48207;SDS011;33997;53.278;9.708;2023-11-22T12:51:36;1.00;;;0.70;;
48207;SDS011;33997;53.278;9.708;2023-11-22T12:54:02;0.63;;;0.63;;
48207;SDS011;33997;53.278;9.708;2023-11-22T12:56:28;1.23;;;0.70;;
48207;SDS011;33997;53.278;9.708;2023-11-22T12:58:54;1.33;;;0.50;;
48207;SDS011;33997;53.278;9.708;2023-11-22T13:01:19;0.95;;;0.50;;
48207;SDS011;33997;53.278;9.708;2023-11-22T13:03:45;1.27;;;0.52;;
48207;SDS011;33997;53.278;9.708;2023-11-22T13:06:11;0.63;;;0.50;;
48207;SDS011;33997;53.278;9.708;2023-11-22T13:08:36;0.57;;;0.57;;
48207;SDS011;33997;53.278;9.708;2023-11-22T13:11:02;0.82;;;0.82;;
48207;SDS011;33997;53.278;9.708;2023-11-22T13:13:28;1.77;;;0.70;;
48207;SDS011;33997;53.278;9.708;2023-11-22T13:15:55;1.05;;;0.60;;
48207;SDS011;33997;53.278;9.708;2023-11-22T13:18:21;0.90;;;0.73;;
48207;SDS011;33997;53.278;9.708;2023-11-22T13:20:47;0.60;;;0.50;;
48207;SDS011;33997;53.278;9.708;2023-11-22T13:23:13;1.27;;;0.73;;
48207;SDS011;33997;53.278;9.708;2023-11-22T13:25:39;1.88;;;0.80;;
48207;SDS011;33997;53.278;9.708;2023-11-22T13:28:06;1.10;;;0.75;;
48207;SDS011;33997;53.278;9.708;2023-11-22T13:30:32;1.48;;;0.70;;
48207;SDS011;33997;53.278;9.708;2023-11-22T13:32:57;1.98;;;0.98;;
48207;SDS011;33997;53.278;9.708;2023-11-22T13:35:23;0.88;;;0.68;;
48207;SDS011;33997;53.278;9.708;2023-11-22T13:37:56;0.75;;;0.60;;
48207;SDS011;33997;53.278;9.708;2023-11-22T13:40:23;0.98;;;0.80;;
48207;SDS011;33997;53.278;9.708;2023-11-22T13:42:51;1.50;;;0.80;;
48207;SDS011;33997;53.278;9.708;2023-11-22T13:45:19;1.23;;;0.75;;
48207;SDS011;33997;53.278;9.708;2023-11-22T13:47:49;2.47;;;0.80;;
48207;SDS011;33997;53.278;9.708;2023-11-22T13:50:20;0.43;;;0.43;;
48207;SDS011;33997;53.278;9.708;2023-11-22T13:52:48;1.20;;;0.68;;
48207;SDS011;33997;53.278;9.708;2023-11-22T13:55:15;0.90;;;0.63;;
48207;SDS011;33997;53.278;9.708;2023-11-22T13:57:44;3.38;;;0.68;;
48207;SDS011;33997;53.278;9.708;2023-11-22T14:00:10;1.42;;;0.70;;
48207;SDS011;33997;53.278;9.708;2023-11-22T14:02:38;1.45;;;0.75;;
48207;SDS011;33997;53.278;9.708;2023-11-22T14:05:05;1.17;;;0.73;;
48207;SDS011;33997;53.278;9.708;2023-11-22T14:07:32;1.10;;;0.80;;
48207;SDS011;33997;53.278;9.708;2023-11-22T14:10:01;2.05;;;0.77;;
48207;SDS011;33997;53.278;9.708;2023-11-22T14:12:28;2.45;;;1.00;;
48207;SDS011;33997;53.278;9.708;2023-11-22T14:14:55;2.15;;;0.68;;
48207;SDS011;33997;53.278;9.708;2023-11-22T14:17:21;2.10;;;0.80;;
48207;SDS011;33997;53.278;9.708;2023-11-22T14:19:46;2.17;;;0.80;;
48207;SDS011;33997;53.278;9.708;2023-11-22T14:22:12;0.68;;;0.50;;
48207;SDS011;33997;53.278;9.708;2023-11-22T14:24:39;2.17;;;1.02;;
48207;SDS011;33997;53.278;9.708;2023-11-22T14:27:04;1.27;;;0.70;;
48207;SDS011;33997;53.278;9.708;2023-11-22T14:29:30;1.15;;;0.65;;
48207;SDS011;33997;53.278;9.708;2023-11-22T14:31:56;1.65;;;0.82;;
48207;SDS011;33997;53.278;9.708;2023-11-22T14:34:21;0.73;;;0.55;;
48207;SDS011;33997;53.278;9.708;2023-11-22T14:36:47;1.77;;;1.02;;
48207;SDS011;33997;53.278;9.708;2023-11-22T14:39:12;0.93;;;0.70;;
48207;SDS011;33997;53.278;9.708;2023-11-22T14:41:39;1.90;;;1.10;;
48207;SDS011;33997;53.278;9.708;2023-11-22T14:44:05;1.92;;;0.82;;
48207;SDS011;33997;53.278;9.708;2023-11-22T14:46:30;1.02;;;0.73;;